createdAt,value
2016-07-28T00:00:13.248Z,22.54
2016-07-28T00:01:16.308Z,22.52
2016-07-28T00:02:20.249Z,22.52
2016-07-28T00:03:14.759Z,22.50
2016-07-28T00:04:20.643Z,22.50
2016-07-28T00:05:14.794Z,22.50
2016-07-28T00:06:34.037Z,22.51
2016-07-28T00:07:27.578Z,22.50
2016-07-28T00:08:15.271Z,22.49
2016-07-28T00:09:11.879Z,22.50
2016-07-28T00:10:13.184Z,22.50
2016-07-28T00:12:23.183Z,22.50
2016-07-28T00:13:14.481Z,22.50
2016-07-28T00:14:14.978Z,22.50
2016-07-28T00:15:19.344Z,22.50
2016-07-28T00:16:15.977Z,23.02
2016-07-28T00:17:15.274Z,23.09
2016-07-28T00:18:22.440Z,23.11
2016-07-28T00:19:21.144Z,23.12
2016-07-28T00:20:27.394Z,23.14
2016-07-28T00:21:20.094Z,22.63
2016-07-28T00:22:18.212Z,23.08
2016-07-28T00:23:23.216Z,23.12
2016-07-28T00:24:21.840Z,23.13
2016-07-28T00:25:13.989Z,23.14
2016-07-28T00:27:11.643Z,22.60
2016-07-28T00:28:13.369Z,23.08
2016-07-28T00:29:13.293Z,23.13
2016-07-28T00:30:34.281Z,23.14
2016-07-28T00:31:27.754Z,23.13
2016-07-28T00:32:18.395Z,22.62
2016-07-28T00:33:23.698Z,22.56
2016-07-28T00:34:14.721Z,22.53
2016-07-28T00:35:19.760Z,22.52
2016-07-28T00:36:11.161Z,22.51
2016-07-28T00:37:28.819Z,22.50
2016-07-28T00:38:33.379Z,22.50
2016-07-28T00:39:12.916Z,22.55
2016-07-28T00:40:22.692Z,22.50
2016-07-28T00:42:23.946Z,23.08
2016-07-28T00:43:22.455Z,23.10
2016-07-28T00:44:20.068Z,23.13
2016-07-28T00:45:22.106Z,23.14
2016-07-28T00:46:28.323Z,22.58
2016-07-28T00:47:33.429Z,22.56
2016-07-28T00:48:25.626Z,22.53
2016-07-28T00:49:28.424Z,22.52
2016-07-28T00:50:33.989Z,22.51
2016-07-28T00:51:10.715Z,22.50
2016-07-28T00:52:12.598Z,22.51
2016-07-28T00:53:14.942Z,22.50
2016-07-28T00:54:12.646Z,22.56
2016-07-28T00:55:12.897Z,22.50
2016-07-28T00:57:13.299Z,22.51
2016-07-28T00:58:14.947Z,22.49
2016-07-28T00:59:27.897Z,22.49
2016-07-28T01:00:16.137Z,22.54
2016-07-28T01:01:23.988Z,22.52
2016-07-28T01:02:29.307Z,22.49
2016-07-28T01:03:13.361Z,22.49
2016-07-28T01:04:12.852Z,22.50
2016-07-28T01:05:15.094Z,22.49
2016-07-28T01:06:26.859Z,22.49
2016-07-28T01:07:17.047Z,22.52
2016-07-28T01:08:14.621Z,22.49
2016-07-28T01:09:14.809Z,22.49
2016-07-28T01:10:24.155Z,22.50
2016-07-28T01:12:34.281Z,22.51
2016-07-28T01:13:22.117Z,23.02
2016-07-28T01:14:11.532Z,23.06
2016-07-28T01:15:13.795Z,22.56
2016-07-28T01:16:15.278Z,22.52
2016-07-28T01:17:16.630Z,22.50
2016-07-28T01:18:15.705Z,22.50
2016-07-28T01:19:12.497Z,22.49
2016-07-28T01:20:10.769Z,22.48
2016-07-28T01:21:27.848Z,22.48
2016-07-28T01:22:12.725Z,22.48
2016-07-28T01:23:13.744Z,22.48
2016-07-28T01:24:13.569Z,22.48
2016-07-28T01:25:12.830Z,22.49
2016-07-28T01:26:15.282Z,22.48
2016-07-28T01:27:14.951Z,22.48
2016-07-28T01:28:15.487Z,22.48
2016-07-28T01:29:16.256Z,22.49
2016-07-28T01:30:14.933Z,22.48
2016-07-28T01:31:28.097Z,22.48
2016-07-28T01:32:32.191Z,22.48
2016-07-28T01:33:11.091Z,22.49
2016-07-28T01:34:12.060Z,22.47
2016-07-28T01:35:16.069Z,22.47
2016-07-28T01:36:14.190Z,22.48
2016-07-28T01:37:27.388Z,22.48
2016-07-28T01:38:16.950Z,22.48
2016-07-28T01:39:14.025Z,22.47
2016-07-28T01:40:12.274Z,22.48
2016-07-28T01:42:11.883Z,22.47
2016-07-28T01:43:24.063Z,22.47
2016-07-28T01:44:25.775Z,22.53
2016-07-28T01:45:26.281Z,22.47
2016-07-28T01:46:13.783Z,22.46
2016-07-28T01:47:16.551Z,22.47
2016-07-28T01:48:25.938Z,22.47
2016-07-28T01:49:17.463Z,22.47
2016-07-28T01:50:30.294Z,22.46
2016-07-28T01:51:12.463Z,22.46
2016-07-28T01:52:36.985Z,22.47
2016-07-28T01:53:15.774Z,22.46
2016-07-28T01:54:13.014Z,22.46
2016-07-28T01:55:31.458Z,22.47
2016-07-28T01:57:27.310Z,22.46
2016-07-28T01:58:15.823Z,22.46
2016-07-28T01:59:17.344Z,22.45
2016-07-28T02:00:26.134Z,22.46
2016-07-28T02:01:28.294Z,22.46
2016-07-28T02:02:14.515Z,22.46
2016-07-28T02:03:22.299Z,22.46
2016-07-28T02:04:26.337Z,22.46
2016-07-28T02:05:31.346Z,22.46
2016-07-28T02:06:15.740Z,22.46
2016-07-28T02:07:33.416Z,22.45
2016-07-28T02:08:27.333Z,22.46
2016-07-28T02:09:27.289Z,22.46
2016-07-28T02:10:14.626Z,22.45
2016-07-28T02:12:33.928Z,22.45
2016-07-28T02:13:19.295Z,22.45
2016-07-28T02:14:20.649Z,22.45
2016-07-28T02:15:22.622Z,22.46
2016-07-28T02:16:23.573Z,22.45
2016-07-28T02:17:10.558Z,22.44
2016-07-28T02:18:22.373Z,22.97
2016-07-28T02:19:15.307Z,23.03
2016-07-28T02:20:32.685Z,23.07
2016-07-28T02:21:13.938Z,22.78
2016-07-28T02:22:15.245Z,22.54
2016-07-28T02:23:26.622Z,22.50
2016-07-28T02:24:18.416Z,22.47
2016-07-28T02:25:32.685Z,22.46
2016-07-28T02:26:20.021Z,22.46
2016-07-28T02:27:13.667Z,22.45
2016-07-28T02:28:33.585Z,22.45
2016-07-28T02:29:28.015Z,22.44
2016-07-28T02:30:38.561Z,22.44
2016-07-28T02:31:27.986Z,22.44
2016-07-28T02:32:21.850Z,22.44
2016-07-28T02:33:23.875Z,22.98
2016-07-28T02:34:38.555Z,23.02
2016-07-28T02:35:11.845Z,22.52
2016-07-28T02:36:22.606Z,22.48
2016-07-28T02:37:14.295Z,22.46
2016-07-28T02:38:23.664Z,22.45
2016-07-28T02:39:34.140Z,22.44
2016-07-28T02:40:27.430Z,22.44
2016-07-28T02:41:21.715Z,22.44
2016-07-28T02:42:13.337Z,22.44
2016-07-28T02:43:16.774Z,22.96
2016-07-28T02:44:14.259Z,23.02
2016-07-28T02:45:32.796Z,23.04
2016-07-28T02:46:14.203Z,23.05
2016-07-28T02:47:24.128Z,23.05
2016-07-28T02:48:32.502Z,23.07
2016-07-28T02:49:28.588Z,23.07
2016-07-28T02:50:28.600Z,23.08
2016-07-28T02:51:23.123Z,22.55
2016-07-28T02:52:11.249Z,22.49
2016-07-28T02:53:27.513Z,22.47
2016-07-28T02:54:17.290Z,22.45
2016-07-28T02:55:39.449Z,22.46
2016-07-28T02:56:22.871Z,22.43
2016-07-28T02:57:12.571Z,22.43
2016-07-28T02:58:29.023Z,22.43
2016-07-28T02:59:15.193Z,22.43
2016-07-28T03:00:27.650Z,22.43
2016-07-28T03:01:22.806Z,22.43
2016-07-28T03:02:24.763Z,22.43
2016-07-28T03:03:14.584Z,22.43
2016-07-28T03:04:27.640Z,22.42
2016-07-28T03:05:32.356Z,22.43
2016-07-28T03:06:14.301Z,22.42
2016-07-28T03:07:13.641Z,22.43
2016-07-28T03:08:28.476Z,22.95
2016-07-28T03:09:21.238Z,23.00
2016-07-28T03:10:12.263Z,23.02
2016-07-28T03:11:33.039Z,23.03
2016-07-28T03:12:28.176Z,23.04
2016-07-28T03:13:27.702Z,23.04
2016-07-28T03:14:14.042Z,22.53
2016-07-28T03:15:27.680Z,23.00
2016-07-28T03:16:31.984Z,23.03
2016-07-28T03:17:13.016Z,23.04
2016-07-28T03:18:22.401Z,23.05
2016-07-28T03:19:13.600Z,23.05
2016-07-28T03:20:21.830Z,23.06
2016-07-28T03:21:20.398Z,23.04
2016-07-28T03:22:14.088Z,22.52
2016-07-28T03:23:27.680Z,22.47
2016-07-28T03:24:14.524Z,22.44
2016-07-28T03:25:12.306Z,22.42
2016-07-28T03:26:27.687Z,22.42
2016-07-28T03:27:21.644Z,22.41
2016-07-28T03:28:35.714Z,22.41
2016-07-28T03:29:22.694Z,22.41
2016-07-28T03:30:19.920Z,22.41
2016-07-28T03:31:10.696Z,22.41
2016-07-28T03:32:12.025Z,22.40
2016-07-28T03:33:12.287Z,22.40
2016-07-28T03:34:27.258Z,22.40
2016-07-28T03:35:34.235Z,22.44
2016-07-28T03:36:31.111Z,22.40
2016-07-28T03:37:20.838Z,22.39
2016-07-28T03:38:26.888Z,22.40
2016-07-28T03:39:12.754Z,22.40
2016-07-28T03:40:12.751Z,22.40
2016-07-28T03:41:12.329Z,22.39
2016-07-28T03:42:15.680Z,22.40
2016-07-28T03:43:12.162Z,22.39
2016-07-28T03:44:29.112Z,22.40
2016-07-28T03:45:28.986Z,22.41
2016-07-28T03:46:20.099Z,22.38
2016-07-28T03:47:22.433Z,22.41
2016-07-28T03:48:24.214Z,22.38
2016-07-28T03:49:29.646Z,22.38
2016-07-28T03:50:26.086Z,22.38
2016-07-28T03:51:22.868Z,22.38
2016-07-28T03:52:14.428Z,22.91
2016-07-28T03:53:13.238Z,22.45
2016-07-28T03:54:28.685Z,22.40
2016-07-28T03:55:27.567Z,22.40
2016-07-28T03:56:23.944Z,22.39
2016-07-28T03:58:21.244Z,22.38
2016-07-28T03:59:31.023Z,22.38
2016-07-28T04:00:28.547Z,22.40
2016-07-28T04:01:27.712Z,22.90
2016-07-28T04:02:23.765Z,22.94
2016-07-28T04:03:21.271Z,22.98
2016-07-28T04:04:22.454Z,23.00
2016-07-28T04:05:27.070Z,23.00
2016-07-28T04:06:16.500Z,22.94
2016-07-28T04:07:16.841Z,22.91
2016-07-28T04:08:26.454Z,22.48
2016-07-28T04:09:13.246Z,22.43
2016-07-28T04:10:31.654Z,22.40
2016-07-28T04:11:24.015Z,22.38
2016-07-28T04:12:26.035Z,22.38
2016-07-28T04:13:27.479Z,22.36
2016-07-28T04:14:15.583Z,22.37
2016-07-28T04:15:28.227Z,22.37
2016-07-28T04:16:16.462Z,22.37
2016-07-28T04:17:14.554Z,22.36
2016-07-28T04:18:28.325Z,22.37
2016-07-28T04:19:23.967Z,22.37
2016-07-28T04:20:12.884Z,22.37
2016-07-28T04:21:14.912Z,22.36
2016-07-28T04:22:31.651Z,22.35
2016-07-28T04:23:23.056Z,22.36
2016-07-28T04:24:27.175Z,22.36
2016-07-28T04:25:17.144Z,22.36
2016-07-28T04:26:23.108Z,22.35
2016-07-28T04:27:27.695Z,22.36
2016-07-28T04:28:22.088Z,22.34
2016-07-28T04:29:15.522Z,22.35
2016-07-28T04:30:26.966Z,22.35
2016-07-28T04:31:15.345Z,22.35
2016-07-28T04:32:13.196Z,22.36
2016-07-28T04:33:21.316Z,22.35
2016-07-28T04:34:26.067Z,22.35
2016-07-28T04:35:13.530Z,22.35
2016-07-28T04:36:26.839Z,22.35
2016-07-28T04:37:27.572Z,22.35
2016-07-28T04:38:32.987Z,22.35
2016-07-28T04:39:36.708Z,22.35
2016-07-28T04:40:26.843Z,22.34
2016-07-28T04:41:13.171Z,22.35
2016-07-28T04:42:17.906Z,22.36
2016-07-28T04:43:31.802Z,22.35
2016-07-28T04:44:28.044Z,22.35
2016-07-28T04:45:21.089Z,22.37
2016-07-28T04:46:26.974Z,22.36
2016-07-28T04:47:15.592Z,22.35
2016-07-28T04:48:16.569Z,22.36
2016-07-28T04:49:21.346Z,22.36
2016-07-28T04:50:22.789Z,22.36
2016-07-28T04:51:26.074Z,22.38
2016-07-28T04:52:21.938Z,22.35
2016-07-28T04:53:13.048Z,22.40
2016-07-28T04:54:13.845Z,22.38
2016-07-28T04:55:12.849Z,22.88
2016-07-28T04:56:19.365Z,22.94
2016-07-28T04:58:21.730Z,22.62
2016-07-28T04:59:14.795Z,22.45
2016-07-28T05:00:13.516Z,22.40
2016-07-28T05:01:23.063Z,22.39
2016-07-28T05:02:27.471Z,22.36
2016-07-28T05:03:26.949Z,22.36
2016-07-28T05:04:22.887Z,22.35
2016-07-28T05:05:21.890Z,22.88
2016-07-28T05:06:19.017Z,22.93
2016-07-28T05:07:12.769Z,22.96
2016-07-28T05:08:12.746Z,22.98
2016-07-28T05:09:12.973Z,22.98
2016-07-28T05:10:17.736Z,22.97
2016-07-28T05:11:21.643Z,23.00
2016-07-28T05:13:14.146Z,22.98
2016-07-28T05:14:13.357Z,22.46
2016-07-28T05:15:13.434Z,22.42
2016-07-28T05:16:29.442Z,22.38
2016-07-28T05:17:25.328Z,22.37
2016-07-28T05:18:23.805Z,22.40
2016-07-28T05:19:27.709Z,22.37
2016-07-28T05:20:15.409Z,22.40
2016-07-28T05:21:22.520Z,22.36
2016-07-28T05:22:26.692Z,22.35
2016-07-28T05:23:22.975Z,22.35
2016-07-28T05:24:11.284Z,22.88
2016-07-28T05:25:14.424Z,22.93
2016-07-28T05:26:21.760Z,22.44
2016-07-28T05:27:20.425Z,22.39
2016-07-28T05:28:22.356Z,22.37
2016-07-28T05:29:24.539Z,22.38
2016-07-28T05:30:27.427Z,22.36
2016-07-28T05:31:14.151Z,22.35
2016-07-28T05:32:09.883Z,22.34
2016-07-28T05:33:20.665Z,22.89
2016-07-28T05:34:25.786Z,22.93
2016-07-28T05:35:22.699Z,22.43
2016-07-28T05:36:25.220Z,22.39
2016-07-28T05:37:13.733Z,22.36
2016-07-28T05:38:25.386Z,22.89
2016-07-28T05:39:21.070Z,22.94
2016-07-28T05:40:23.734Z,22.96
2016-07-28T05:41:13.892Z,22.97
2016-07-28T05:42:14.795Z,22.98
2016-07-28T05:43:22.012Z,22.47
2016-07-28T05:44:22.244Z,22.41
2016-07-28T05:45:21.035Z,22.41
2016-07-28T05:46:23.436Z,22.41
2016-07-28T05:47:23.893Z,22.38
2016-07-28T05:48:27.781Z,22.37
2016-07-28T05:49:19.537Z,22.37
2016-07-28T05:51:18.346Z,22.36
2016-07-28T05:52:26.769Z,22.37
2016-07-28T05:53:21.516Z,22.37
2016-07-28T05:54:26.544Z,22.37
2016-07-28T05:55:23.678Z,22.37
2016-07-28T05:56:21.840Z,22.37
2016-07-28T05:58:12.704Z,22.40
2016-07-28T05:59:20.589Z,22.37
2016-07-28T06:00:12.211Z,22.37
2016-07-28T06:01:21.260Z,22.90
2016-07-28T06:02:16.675Z,22.95
2016-07-28T06:03:12.240Z,22.62
2016-07-28T06:04:20.945Z,22.46
2016-07-28T06:05:16.322Z,22.42
2016-07-28T06:06:16.195Z,22.39
2016-07-28T06:07:13.456Z,22.42
2016-07-28T06:08:21.788Z,22.42
2016-07-28T06:09:28.323Z,22.38
2016-07-28T06:10:14.299Z,22.37
2016-07-28T06:11:22.000Z,22.38
2016-07-28T06:12:16.699Z,22.37
2016-07-28T06:13:21.945Z,22.91
2016-07-28T06:14:12.296Z,22.44
2016-07-28T06:15:17.708Z,22.40
2016-07-28T06:16:15.675Z,22.39
2016-07-28T06:17:22.789Z,22.37
2016-07-28T06:18:25.209Z,22.42
2016-07-28T06:19:26.939Z,22.37
2016-07-28T06:20:22.998Z,22.37
2016-07-28T06:21:23.798Z,22.39
2016-07-28T06:22:24.127Z,22.37
2016-07-28T06:23:18.731Z,22.38
2016-07-28T06:24:20.395Z,22.37
2016-07-28T06:25:21.292Z,22.37
2016-07-28T06:26:28.233Z,22.37
2016-07-28T06:27:22.687Z,22.37
2016-07-28T06:28:13.619Z,22.38
2016-07-28T06:29:24.838Z,22.38
2016-07-28T06:30:16.317Z,22.37
2016-07-28T06:31:26.715Z,22.38
2016-07-28T06:32:13.013Z,22.41
2016-07-28T06:33:13.456Z,22.38
2016-07-28T06:34:14.037Z,22.38
2016-07-28T06:35:11.378Z,22.36
2016-07-28T06:36:28.034Z,22.90
2016-07-28T06:37:21.231Z,22.95
2016-07-28T06:38:19.621Z,22.98
2016-07-28T06:39:24.678Z,22.97
2016-07-28T06:40:25.629Z,22.44
2016-07-28T06:41:23.736Z,22.48
2016-07-28T06:42:21.254Z,22.43
2016-07-28T06:43:22.008Z,22.42
2016-07-28T06:44:37.959Z,22.39
2016-07-28T06:45:19.760Z,22.39
2016-07-28T06:46:27.302Z,22.40
2016-07-28T06:47:16.437Z,22.40
2016-07-28T06:48:14.585Z,22.42
2016-07-28T06:49:12.763Z,22.41
2016-07-28T06:50:12.195Z,22.44
2016-07-28T06:51:12.805Z,22.44
2016-07-28T06:52:16.575Z,22.44
2016-07-28T06:53:28.136Z,22.47
2016-07-28T06:54:22.619Z,22.44
2016-07-28T06:55:28.613Z,22.45
2016-07-28T06:56:13.421Z,22.45
2016-07-28T06:57:22.359Z,22.99
2016-07-28T06:58:19.137Z,23.04
2016-07-28T06:59:27.507Z,23.07
2016-07-28T07:00:24.923Z,23.09
2016-07-28T07:01:26.379Z,23.10
2016-07-28T07:02:25.797Z,23.11
2016-07-28T07:03:24.245Z,23.11
2016-07-28T07:04:26.057Z,22.63
2016-07-28T07:05:27.074Z,22.55
2016-07-28T07:06:22.986Z,22.54
2016-07-28T07:07:27.238Z,22.54
2016-07-28T07:08:15.152Z,22.54
2016-07-28T07:09:22.998Z,22.52
2016-07-28T07:10:16.478Z,22.50
2016-07-28T07:11:25.754Z,22.49
2016-07-28T07:12:13.885Z,22.51
2016-07-28T07:13:22.756Z,22.53
2016-07-28T07:14:13.697Z,22.56
2016-07-28T07:15:27.107Z,22.57
2016-07-28T07:16:14.775Z,22.54
2016-07-28T07:17:10.779Z,22.54
2016-07-28T07:18:26.868Z,22.54
2016-07-28T07:19:14.422Z,22.52
2016-07-28T07:20:14.138Z,22.52
2016-07-28T07:21:13.532Z,22.54
2016-07-28T07:22:18.838Z,22.56
2016-07-28T07:23:26.774Z,22.58
2016-07-28T07:24:27.582Z,22.58
2016-07-28T07:25:14.430Z,22.59
2016-07-28T07:26:15.570Z,22.58
2016-07-28T07:27:27.878Z,22.57
2016-07-28T07:28:23.230Z,22.57
2016-07-28T07:29:33.198Z,22.49
2016-07-28T07:30:27.038Z,22.34
2016-07-28T07:31:23.128Z,22.25
2016-07-28T07:32:16.032Z,22.14
2016-07-28T07:33:25.165Z,22.10
2016-07-28T07:34:29.562Z,22.04
2016-07-28T07:35:23.034Z,21.98
2016-07-28T07:36:26.448Z,21.96
2016-07-28T07:37:23.126Z,22.01
2016-07-28T07:38:29.287Z,21.98
2016-07-28T07:39:38.540Z,21.99
2016-07-28T07:40:13.758Z,21.99
2016-07-28T07:41:26.919Z,21.94
2016-07-28T07:42:15.859Z,21.90
2016-07-28T07:43:18.400Z,21.84
2016-07-28T07:44:12.890Z,21.87
2016-07-28T07:45:15.306Z,21.86
2016-07-28T07:46:14.883Z,21.86
2016-07-28T07:47:17.871Z,21.83
2016-07-28T07:48:16.584Z,21.82
2016-07-28T07:49:13.651Z,21.81
2016-07-28T07:50:15.779Z,21.79
2016-07-28T07:51:15.331Z,21.80
2016-07-28T07:52:15.792Z,21.78
2016-07-28T07:53:13.448Z,21.75
2016-07-28T07:54:13.428Z,21.75
2016-07-28T07:55:15.974Z,21.73
2016-07-28T07:56:17.650Z,21.71
2016-07-28T07:57:14.926Z,21.80
2016-07-28T07:58:19.283Z,21.73
2016-07-28T07:59:15.995Z,21.77
2016-07-28T08:00:15.418Z,21.90
2016-07-28T08:01:15.696Z,21.93
2016-07-28T08:02:15.742Z,21.93
2016-07-28T08:03:16.452Z,22.03
2016-07-28T08:04:13.175Z,22.07
2016-07-28T08:05:15.070Z,22.11
2016-07-28T08:06:16.232Z,22.07
2016-07-28T08:07:14.744Z,22.25
2016-07-28T08:08:19.063Z,22.24
2016-07-28T08:09:13.148Z,22.25
2016-07-28T08:10:21.680Z,22.26
2016-07-28T08:11:27.073Z,22.29
2016-07-28T08:12:27.167Z,22.28
2016-07-28T08:13:18.422Z,22.32
2016-07-28T08:14:11.875Z,22.32
2016-07-28T08:15:21.274Z,22.36
2016-07-28T08:16:12.001Z,22.34
2016-07-28T08:17:11.914Z,22.35
2016-07-28T08:18:27.262Z,22.35
2016-07-28T08:19:18.528Z,22.36
2016-07-28T08:20:19.256Z,22.37
2016-07-28T08:21:28.372Z,22.38
2016-07-28T08:22:19.263Z,22.38
2016-07-28T08:23:15.052Z,22.39
2016-07-28T08:24:16.304Z,22.40
2016-07-28T08:25:20.309Z,22.40
2016-07-28T08:26:13.498Z,22.40
2016-07-28T08:27:27.815Z,22.42
2016-07-28T08:28:13.257Z,22.43
2016-07-28T08:29:12.884Z,22.42
2016-07-28T08:30:24.220Z,22.44
2016-07-28T08:31:14.306Z,22.44
2016-07-28T08:32:13.400Z,22.51
2016-07-28T08:33:16.703Z,22.43
2016-07-28T08:34:20.664Z,22.44
2016-07-28T08:35:24.163Z,22.45
2016-07-28T08:36:27.004Z,22.45
2016-07-28T08:37:23.096Z,22.45
2016-07-28T08:38:23.067Z,22.46
2016-07-28T08:39:12.265Z,22.46
2016-07-28T08:40:29.632Z,22.46
2016-07-28T08:41:26.153Z,22.47
2016-07-28T08:42:23.200Z,22.48
2016-07-28T08:43:27.902Z,22.48
2016-07-28T08:44:28.054Z,22.47
2016-07-28T08:45:12.474Z,22.51
2016-07-28T08:46:14.073Z,22.48
2016-07-28T08:47:27.642Z,22.48
2016-07-28T08:48:15.192Z,22.49
2016-07-28T08:49:26.934Z,22.54
2016-07-28T08:50:26.472Z,22.50
2016-07-28T08:51:12.550Z,22.50
2016-07-28T08:52:11.692Z,22.50
2016-07-28T08:53:13.330Z,22.53
2016-07-28T08:54:11.761Z,22.51
2016-07-28T08:55:14.959Z,22.55
2016-07-28T08:56:15.717Z,22.52
2016-07-28T08:57:16.082Z,22.52
2016-07-28T08:59:24.082Z,22.56
2016-07-28T09:00:30.760Z,22.53
2016-07-28T09:01:13.391Z,22.52
2016-07-28T09:02:26.596Z,22.54
2016-07-28T09:03:20.333Z,22.53
2016-07-28T09:04:16.420Z,22.55
2016-07-28T09:05:22.389Z,22.54
2016-07-28T09:06:25.706Z,22.54
2016-07-28T09:07:13.561Z,22.55
2016-07-28T09:08:13.911Z,22.54
2016-07-28T09:09:12.056Z,22.55
2016-07-28T09:10:32.995Z,22.55
2016-07-28T09:11:29.040Z,22.56
2016-07-28T09:12:15.092Z,22.56
2016-07-28T09:14:15.646Z,22.56
2016-07-28T09:15:23.759Z,22.56
2016-07-28T09:16:28.199Z,22.56
2016-07-28T09:17:19.090Z,22.56
2016-07-28T09:18:10.603Z,22.57
2016-07-28T09:19:20.075Z,22.56
2016-07-28T09:20:14.243Z,22.58
2016-07-28T09:21:33.571Z,22.58
2016-07-28T09:22:14.676Z,22.58
2016-07-28T09:23:23.938Z,22.59
2016-07-28T09:24:26.614Z,22.56
2016-07-28T09:25:23.009Z,22.56
2016-07-28T09:26:27.425Z,22.56
2016-07-28T09:27:28.331Z,22.55
2016-07-28T09:29:22.961Z,22.57
2016-07-28T09:30:28.183Z,22.57
2016-07-28T09:31:26.986Z,22.57
2016-07-28T09:32:24.121Z,22.58
2016-07-28T09:33:30.694Z,23.11
2016-07-28T09:34:25.253Z,22.86
2016-07-28T09:35:15.244Z,22.68
2016-07-28T09:36:14.227Z,22.67
2016-07-28T09:37:14.371Z,22.62
2016-07-28T09:38:28.858Z,22.61
2016-07-28T09:39:15.687Z,22.58
2016-07-28T09:40:25.725Z,22.61
2016-07-28T09:41:21.129Z,22.61
2016-07-28T09:42:31.074Z,22.61
2016-07-28T09:44:13.126Z,22.62
2016-07-28T09:45:12.596Z,22.62
2016-07-28T09:46:12.643Z,22.63
2016-07-28T09:47:16.904Z,22.62
2016-07-28T09:48:13.997Z,22.63
2016-07-28T09:49:17.535Z,22.63
2016-07-28T09:50:26.905Z,22.65
2016-07-28T09:51:24.234Z,22.63
2016-07-28T09:52:21.056Z,22.68
2016-07-28T09:53:22.143Z,22.64
2016-07-28T09:54:31.370Z,22.65
2016-07-28T09:55:26.268Z,22.65
2016-07-28T09:56:12.996Z,22.65
2016-07-28T09:57:15.747Z,22.66
2016-07-28T09:58:13.198Z,22.66
2016-07-28T09:59:15.314Z,22.66
2016-07-28T10:00:30.317Z,22.66
2016-07-28T10:01:34.945Z,22.67
2016-07-28T10:02:31.763Z,22.67
2016-07-28T10:03:20.739Z,22.68
2016-07-28T10:04:39.938Z,22.67
2016-07-28T10:05:11.332Z,22.66
2016-07-28T10:06:22.044Z,22.70
2016-07-28T10:07:12.032Z,22.67
2016-07-28T10:08:15.148Z,22.69
2016-07-28T10:09:13.598Z,22.68
2016-07-28T10:10:32.080Z,22.69
2016-07-28T10:11:34.339Z,22.66
2016-07-28T10:12:14.270Z,22.69
2016-07-28T10:14:14.408Z,22.69
2016-07-28T10:15:11.125Z,22.70
2016-07-28T10:16:26.571Z,22.69
2016-07-28T10:17:14.464Z,22.70
2016-07-28T10:18:27.033Z,22.71
2016-07-28T10:19:13.279Z,22.74
2016-07-28T10:20:32.655Z,22.72
2016-07-28T10:21:17.608Z,22.72
2016-07-28T10:22:28.402Z,22.73
2016-07-28T10:23:14.586Z,22.73
2016-07-28T10:24:27.967Z,22.74
2016-07-28T10:25:32.760Z,22.73
2016-07-28T10:26:26.041Z,22.74
2016-07-28T10:27:10.195Z,22.74
2016-07-28T10:29:22.199Z,22.75
2016-07-28T10:30:10.321Z,22.74
2016-07-28T10:31:11.898Z,22.74
2016-07-28T10:32:27.859Z,22.75
2016-07-28T10:33:27.444Z,22.73
2016-07-28T10:34:24.438Z,22.73
2016-07-28T10:35:11.900Z,22.73
2016-07-28T10:36:12.619Z,22.80
2016-07-28T10:37:28.153Z,22.72
2016-07-28T10:38:33.224Z,22.74
2016-07-28T10:39:33.601Z,22.73
2016-07-28T10:40:37.082Z,22.72
2016-07-28T10:41:27.818Z,22.76
2016-07-28T10:42:13.428Z,22.71
2016-07-28T10:43:32.224Z,22.72
2016-07-28T10:44:16.479Z,22.70
2016-07-28T10:45:22.321Z,22.71
2016-07-28T10:46:24.312Z,22.70
2016-07-28T10:47:31.217Z,22.71
2016-07-28T10:48:23.307Z,22.71
2016-07-28T10:49:32.662Z,22.75
2016-07-28T10:50:10.729Z,22.70
2016-07-28T10:51:12.896Z,22.71
2016-07-28T10:52:15.902Z,22.71
2016-07-28T10:53:28.590Z,22.72
2016-07-28T10:54:32.162Z,22.73
2016-07-28T10:55:27.579Z,22.73
2016-07-28T10:56:18.511Z,22.73
2016-07-28T10:57:10.874Z,22.73
2016-07-28T10:58:21.209Z,22.80
2016-07-28T10:59:11.520Z,22.75
2016-07-28T11:00:27.041Z,22.79
2016-07-28T11:01:12.992Z,22.76
2016-07-28T11:02:16.275Z,22.76
2016-07-28T11:03:18.498Z,22.76
2016-07-28T11:04:27.288Z,22.76
2016-07-28T11:05:26.185Z,22.75
2016-07-28T11:06:25.284Z,22.74
2016-07-28T11:07:24.648Z,23.26
2016-07-28T11:08:12.956Z,22.79
2016-07-28T11:09:10.394Z,22.76
2016-07-28T11:10:26.431Z,22.74
2016-07-28T11:11:13.208Z,22.74
2016-07-28T11:12:32.468Z,22.74
2016-07-28T11:13:11.698Z,22.73
2016-07-28T11:14:21.720Z,22.73
2016-07-28T11:15:18.103Z,22.72
2016-07-28T11:16:27.089Z,22.73
2016-07-28T11:17:14.200Z,22.72
2016-07-28T11:18:13.606Z,22.73
2016-07-28T11:19:26.393Z,22.72
2016-07-28T11:20:10.360Z,22.71
2016-07-28T11:21:12.820Z,22.72
2016-07-28T11:22:20.889Z,22.74
2016-07-28T11:23:11.239Z,22.71
2016-07-28T11:24:28.841Z,23.24
2016-07-28T11:25:22.726Z,23.30
2016-07-28T11:26:13.721Z,23.31
2016-07-28T11:27:26.371Z,23.32
2016-07-28T11:28:24.798Z,23.35
2016-07-28T11:29:16.587Z,23.34
2016-07-28T11:30:12.899Z,23.35
2016-07-28T11:31:15.969Z,23.34
2016-07-28T11:32:13.801Z,22.82
2016-07-28T11:33:11.526Z,22.76
2016-07-28T11:34:36.629Z,23.26
2016-07-28T11:35:31.360Z,23.30
2016-07-28T11:36:15.411Z,22.84
2016-07-28T11:37:12.496Z,22.76
2016-07-28T11:38:20.343Z,22.74
2016-07-28T11:39:13.751Z,22.74
2016-07-28T11:40:13.500Z,22.73
2016-07-28T11:41:14.687Z,22.72
2016-07-28T11:42:25.037Z,22.73
2016-07-28T11:43:11.295Z,22.72
2016-07-28T11:44:11.878Z,22.72
2016-07-28T11:45:23.760Z,22.73
2016-07-28T11:46:13.615Z,22.73
2016-07-28T11:47:13.050Z,22.73
2016-07-28T11:48:13.454Z,22.76
2016-07-28T11:49:11.835Z,22.73
2016-07-28T11:50:14.964Z,22.72
2016-07-28T11:51:14.118Z,22.73
2016-07-28T11:52:13.052Z,22.73
2016-07-28T11:53:10.347Z,22.73
2016-07-28T11:54:15.967Z,23.26
2016-07-28T11:55:18.145Z,23.31
2016-07-28T11:56:15.473Z,23.34
2016-07-28T11:57:23.633Z,23.35
2016-07-28T11:58:10.967Z,23.34
2016-07-28T11:59:20.890Z,23.02
2016-07-28T12:00:15.941Z,22.85
2016-07-28T12:01:24.951Z,22.80
2016-07-28T12:02:26.431Z,22.86
2016-07-28T12:03:26.876Z,22.81
2016-07-28T12:04:14.599Z,22.80
2016-07-28T12:05:12.542Z,22.84
2016-07-28T12:06:26.474Z,22.82
2016-07-28T12:07:16.152Z,22.82
2016-07-28T12:08:23.121Z,22.83
2016-07-28T12:09:23.097Z,22.83
2016-07-28T12:10:16.575Z,22.87
2016-07-28T12:11:30.469Z,22.91
2016-07-28T12:12:22.582Z,23.37
2016-07-28T12:13:21.854Z,23.44
2016-07-28T12:14:14.405Z,22.96
2016-07-28T12:15:27.619Z,22.88
2016-07-28T12:16:24.780Z,22.91
2016-07-28T12:17:28.139Z,22.86
2016-07-28T12:18:20.372Z,22.86
2016-07-28T12:19:13.763Z,22.90
2016-07-28T12:20:20.467Z,22.88
2016-07-28T12:21:12.128Z,22.87
2016-07-28T12:22:13.119Z,22.88
2016-07-28T12:23:22.258Z,22.88
2016-07-28T12:24:14.042Z,22.89
2016-07-28T12:25:11.594Z,22.88
2016-07-28T12:26:25.553Z,23.42
2016-07-28T12:27:31.267Z,23.10
2016-07-28T12:28:14.591Z,22.93
2016-07-28T12:29:27.691Z,22.90
2016-07-28T12:30:29.075Z,22.89
2016-07-28T12:31:21.875Z,22.90
2016-07-28T12:32:31.609Z,22.91
2016-07-28T12:33:12.900Z,22.99
2016-07-28T12:34:25.623Z,22.90
2016-07-28T12:35:32.569Z,22.92
2016-07-28T12:36:21.693Z,22.91
2016-07-28T12:37:27.107Z,22.90
2016-07-28T12:38:29.309Z,22.90
2016-07-28T12:39:27.816Z,22.89
2016-07-28T12:40:13.771Z,22.87
2016-07-28T12:41:15.244Z,22.88
2016-07-28T12:42:22.190Z,22.87
2016-07-28T12:43:34.098Z,22.87
2016-07-28T12:44:31.753Z,22.87
2016-07-28T12:45:27.861Z,22.86
2016-07-28T12:46:14.179Z,22.86
2016-07-28T12:47:35.958Z,22.87
2016-07-28T12:48:27.791Z,22.88
2016-07-28T12:49:27.932Z,22.89
2016-07-28T12:50:19.009Z,22.87
2016-07-28T12:51:24.837Z,22.87
2016-07-28T12:52:32.544Z,22.86
2016-07-28T12:53:22.426Z,22.85
2016-07-28T12:54:32.817Z,22.86
2016-07-28T12:55:18.098Z,22.86
2016-07-28T12:56:30.613Z,22.87
2016-07-28T12:57:27.494Z,22.87
2016-07-28T12:58:22.481Z,22.88
2016-07-28T12:59:27.359Z,22.88
2016-07-28T13:00:16.385Z,22.93
2016-07-28T13:01:28.495Z,22.89
2016-07-28T13:02:28.127Z,22.89
2016-07-28T13:03:33.358Z,22.89
2016-07-28T13:04:23.377Z,22.89
2016-07-28T13:05:33.141Z,22.89
2016-07-28T13:06:20.129Z,22.89
2016-07-28T13:07:17.245Z,22.88
2016-07-28T13:08:27.496Z,22.88
2016-07-28T13:09:24.790Z,22.94
2016-07-28T13:10:27.462Z,22.86
2016-07-28T13:11:28.036Z,22.86